Time;durP1;ratioP1;P1;durP2;ratioP2;P2;SDS_P1;SDS_P2;PMS_P1;PMS_P2;Temp;Humidity;BMP_temperature;BMP_pressure;BME280_temperature;BME280_humidity;BME280_pressure;Samples;Min_cycle;Max_cycle;Signal;HPM_P1;HPM_P2
2023/01/25 00:01:40;;;;;;;11.77;9.03;;;0.90;1.00;;;;;;5008407;28;20192;-77
2023/01/25 00:04:06;;;;;;;12.67;8.77;;;0.90;1.00;;;;;;5006475;28;20195;-76
2023/01/25 00:06:31;;;;;;;10.97;8.23;;;0.80;1.00;;;;;;5007837;28;20204;-77
2023/01/25 00:08:57;;;;;;;12.80;9.53;;;0.90;1.00;;;;;;5007606;28;20241;-76
2023/01/25 00:11:22;;;;;;;13.53;10.30;;;0.80;1.00;;;;;;5006159;28;20203;-77
2023/01/25 00:13:48;;;;;;;12.27;9.03;;;1.10;1.00;;;;;;5007685;28;20612;-76
2023/01/25 00:16:13;;;;;;;11.97;8.93;;;0.90;1.00;;;;;;5007728;28;20210;-76
2023/01/25 00:18:39;;;;;;;13.03;9.80;;;1.00;1.00;;;;;;5007364;28;20533;-76
2023/01/25 00:21:20;;;;;;;14.03;9.90;;;0.90;1.00;;;;;;5022661;28;20186;-77
2023/01/25 00:23:45;;;;;;;13.23;9.20;;;0.90;1.00;;;;;;5006211;28;20815;-76
2023/01/25 00:26:11;;;;;;;12.73;9.17;;;0.90;1.00;;;;;;5007509;28;20200;-77
2023/01/25 00:28:37;;;;;;;13.27;10.27;;;0.90;1.00;;;;;;5007113;28;20250;-76
2023/01/25 00:31:05;;;;;;;15.47;11.20;;;0.90;1.00;;;;;;5007722;28;20175;-76
2023/01/25 00:33:36;;;;;;;13.90;10.27;;;0.70;1.00;;;;;;5007042;28;20190;-76
2023/01/25 00:36:30;;;;;;;15.20;10.50;;;0.80;1.00;;;;;;5007218;28;20639;-76
2023/01/25 00:38:56;;;;;;;15.07;10.10;;;0.80;1.00;;;;;;5007760;28;20184;-77
2023/01/25 00:41:22;;;;;;;15.50;10.83;;;0.70;1.00;;;;;;5008955;28;20207;-76
2023/01/25 00:43:48;;;;;;;15.87;10.90;;;0.80;1.00;;;;;;5005872;28;20702;-76
2023/01/25 00:46:15;;;;;;;16.73;11.57;;;0.70;1.00;;;;;;5005999;28;20269;-77
2023/01/25 00:48:40;;;;;;;15.93;11.47;;;0.80;1.00;;;;;;5006769;28;20547;-76
2023/01/25 00:51:06;;;;;;;18.27;12.40;;;0.80;1.00;;;;;;5006956;28;20195;-76
2023/01/25 00:53:32;;;;;;;17.73;12.97;;;0.80;1.00;;;;;;5005262;28;20191;-76
2023/01/25 00:55:58;;;;;;;16.47;12.63;;;0.80;1.00;;;;;;5007008;28;20254;-78
2023/01/25 00:58:23;;;;;;;18.57;13.00;;;0.90;1.00;;;;;;5007630;28;20196;-77
2023/01/25 01:00:50;;;;;;;18.83;12.87;;;0.90;1.00;;;;;;5005107;28;20191;-76
2023/01/25 01:03:16;;;;;;;17.57;12.60;;;0.80;1.00;;;;;;5005885;28;20188;-76
2023/01/25 01:05:41;;;;;;;17.33;12.23;;;0.80;1.00;;;;;;5005844;28;20191;-76
2023/01/25 01:08:07;;;;;;;18.33;13.00;;;0.80;1.00;;;;;;5006939;28;20187;-77
2023/01/25 01:10:32;;;;;;;18.47;13.73;;;0.80;1.00;;;;;;5006724;28;20183;-76
2023/01/25 01:12:58;;;;;;;20.27;14.27;;;0.80;1.00;;;;;;5006044;28;20290;-76
2023/01/25 01:15:23;;;;;;;20.50;14.37;;;0.70;1.00;;;;;;5006793;28;20590;-78
2023/01/25 01:17:49;;;;;;;18.97;13.53;;;0.80;1.00;;;;;;5006755;28;20764;-77
2023/01/25 01:20:15;;;;;;;21.17;14.70;;;0.80;1.00;;;;;;5007246;28;20187;-76
2023/01/25 01:22:40;;;;;;;21.70;15.43;;;0.80;1.00;;;;;;5004638;28;20187;-79
2023/01/25 01:25:06;;;;;;;19.63;14.03;;;0.80;1.00;;;;;;5006249;28;20183;-76
2023/01/25 01:27:32;;;;;;;19.90;14.13;;;0.80;1.00;;;;;;5007065;28;20693;-79
2023/01/25 01:29:57;;;;;;;19.80;14.60;;;0.90;1.00;;;;;;5006882;28;20187;-77
2023/01/25 01:32:23;;;;;;;18.90;14.07;;;0.80;1.00;;;;;;5006665;28;20203;-76
2023/01/25 01:34:49;;;;;;;21.47;14.03;;;0.80;1.00;;;;;;5005824;28;20246;-76
2023/01/25 01:37:14;;;;;;;21.57;14.83;;;0.70;1.00;;;;;;5005920;28;20251;-76
2023/01/25 01:39:40;;;;;;;25.00;15.93;;;0.70;1.00;;;;;;5004478;28;20175;-76
2023/01/25 01:42:05;;;;;;;22.87;15.20;;;0.70;2.80;;;;;;5006923;28;20198;-79
2023/01/25 01:44:45;;;;;;;24.00;16.63;;;0.50;99.90;;;;;;5004868;28;20314;-79
2023/01/25 01:47:27;;;;;;;22.00;15.07;;;0.50;99.90;;;;;;5008009;28;20211;-77
2023/01/25 01:50:11;;;;;;;24.47;16.63;;;0.50;99.90;;;;;;5006908;28;20227;-79
2023/01/25 01:52:37;;;;;;;23.83;16.43;;;0.60;99.90;;;;;;5004455;28;20233;-77
2023/01/25 01:55:11;;;;;;;26.07;17.07;;;0.60;1.00;;;;;;5005052;28;20249;-77
2023/01/25 01:57:41;;;;;;;26.17;17.60;;;0.60;99.90;;;;;;5004850;28;20284;-76
2023/01/25 02:00:24;;;;;;;25.83;16.40;;;0.50;1.00;;;;;;5006042;28;20171;-77
2023/01/25 02:02:50;;;;;;;26.37;17.43;;;0.50;1.00;;;;;;5008298;28;20184;-78
2023/01/25 02:05:26;;;;;;;25.53;16.93;;;0.40;1.00;;;;;;5006376;28;20231;-78
2023/01/25 02:07:53;;;;;;;26.80;17.33;;;0.50;1.00;;;;;;5009624;28;20210;-78
2023/01/25 02:10:20;;;;;;;26.33;16.80;;;0.50;1.00;;;;;;5007824;28;20201;-78
2023/01/25 02:12:47;;;;;;;26.13;16.37;;;0.60;1.00;;;;;;5009844;28;20242;-78
2023/01/25 02:15:12;;;;;;;21.97;15.50;;;0.60;1.00;;;;;;5005619;28;20184;-78
2023/01/25 02:17:40;;;;;;;23.87;15.83;;;0.50;99.90;;;;;;5009266;28;20230;-78
2023/01/25 02:20:25;;;;;;;27.63;18.50;;;0.50;1.00;;;;;;5004530;28;20187;-78
2023/01/25 02:22:59;;;;;;;29.97;18.17;;;0.50;1.00;;;;;;5007246;28;20240;-78
2023/01/25 02:25:25;;;;;;;26.67;16.80;;;0.60;1.00;;;;;;5006457;28;20187;-78
2023/01/25 02:27:55;;;;;;;26.17;17.03;;;0.50;1.00;;;;;;5008950;28;20740;-78
2023/01/25 02:30:21;;;;;;;26.00;18.10;;;0.50;1.00;;;;;;5006460;28;20199;-78
2023/01/25 02:32:47;;;;;;;24.73;17.07;;;0.60;1.00;;;;;;5004798;28;20565;-76
2023/01/25 02:35:36;;;;;;;28.70;19.45;;;0.60;1.00;;;;;;5005499;28;20430;-78
2023/01/25 02:38:02;;;;;;;26.07;16.97;;;0.50;1.00;;;;;;5006390;28;20199;-78
2023/01/25 02:40:31;;;;;;;27.70;18.23;;;0.40;1.00;;;;;;5007773;28;20226;-78
2023/01/25 02:42:57;;;;;;;27.97;17.47;;;0.30;1.00;;;;;;5005917;28;20179;-76
2023/01/25 02:45:27;;;;;;;25.70;17.37;;;0.40;1.00;;;;;;5007030;28;20187;-78
2023/01/25 02:47:52;;;;;;;28.63;18.37;;;0.40;1.00;;;;;;5005939;28;20203;-78
2023/01/25 02:50:18;;;;;;;28.20;18.33;;;0.50;1.00;;;;;;5006647;28;20202;-78
2023/01/25 02:52:44;;;;;;;26.67;17.87;;;0.40;1.00;;;;;;5006061;28;20207;-78
2023/01/25 02:55:09;;;;;;;27.50;18.13;;;0.40;1.00;;;;;;5005125;28;20299;-77
2023/01/25 02:57:35;;;;;;;26.33;17.77;;;0.40;1.00;;;;;;5006028;28;20257;-78
2023/01/25 03:00:01;;;;;;;28.23;18.13;;;0.30;1.00;;;;;;5006960;28;20650;-77
2023/01/25 03:02:27;;;;;;;28.47;19.07;;;0.30;1.00;;;;;;5005594;28;20200;-78
2023/01/25 03:04:52;;;;;;;28.03;18.50;;;0.30;1.00;;;;;;5005250;28;20270;-76
2023/01/25 03:07:18;;;;;;;28.63;17.53;;;0.30;1.00;;;;;;5006456;28;20206;-78
2023/01/25 03:09:43;;;;;;;28.60;19.20;;;0.30;8.00;;;;;;5003987;28;20199;-78
2023/01/25 03:12:09;;;;;;;31.23;18.67;;;0.30;1.00;;;;;;5006642;28;20199;-78
2023/01/25 03:14:34;;;;;;;27.43;17.57;;;0.20;22.20;;;;;;5006282;28;20195;-78
2023/01/25 03:17:00;;;;;;;27.47;18.10;;;0.20;99.90;;;;;;5010381;28;20203;-78
2023/01/25 03:19:25;;;;;;;29.47;18.20;;;0.20;99.90;;;;;;5010887;28;20196;-78
2023/01/25 03:21:51;;;;;;;28.60;18.80;;;0.20;99.90;;;;;;5010957;28;20187;-76
2023/01/25 03:24:16;;;;;;;25.80;16.93;;;0.20;99.90;;;;;;5012114;28;20249;-78
2023/01/25 03:29:26;;;;;;;28.10;17.30;;;0.40;59.10;;;;;;5015493;28;20222;-78
2023/01/25 03:31:52;;;;;;;26.33;16.37;;;0.30;1.00;;;;;;5015591;28;20207;-78
2023/01/25 03:34:17;;;;;;;26.07;16.47;;;0.20;1.00;;;;;;5013552;28;20253;-78
2023/01/25 03:36:43;;;;;;;27.17;16.90;;;0.50;1.00;;;;;;5014841;28;20231;-78
2023/01/25 03:39:08;;;;;;;24.33;15.20;;;0.30;2.90;;;;;;5013635;28;20223;-78
2023/01/25 03:41:34;;;;;;;21.93;14.80;;;0.40;1.00;;;;;;5013155;28;20192;-77
2023/01/25 03:43:59;;;;;;;24.17;16.20;;;0.20;1.00;;;;;;5012973;28;20187;-78
2023/01/25 03:46:25;;;;;;;25.10;15.90;;;0.20;1.00;;;;;;5015446;28;20211;-77
2023/01/25 03:48:51;;;;;;;25.03;15.43;;;0.20;10.00;;;;;;5015045;28;20188;-78
2023/01/25 03:51:16;;;;;;;24.67;15.07;;;0.10;60.20;;;;;;5014582;28;20203;-78
2023/01/25 03:53:42;;;;;;;24.90;15.63;;;0.10;99.90;;;;;;5014393;28;20481;-78
2023/01/25 03:56:10;;;;;;;25.30;16.50;;;0.10;99.90;;;;;;5011481;28;20727;-75
2023/01/25 03:58:38;;;;;;;25.83;15.50;;;0.20;99.90;;;;;;5025383;28;20788;-78
2023/01/25 04:01:05;;;;;;;24.07;15.20;;;0.20;99.90;;;;;;5014189;28;20183;-78
2023/01/25 04:03:31;;;;;;;22.40;15.30;;;0.20;99.90;;;;;;5013920;28;20548;-78
2023/01/25 04:05:57;;;;;;;26.13;16.83;;;0.10;1.00;;;;;;5014034;28;20208;-78
2023/01/25 04:08:23;;;;;;;24.63;16.47;;;0.20;1.00;;;;;;5014558;28;20218;-78
2023/01/25 04:11:09;;;;;;;28.47;16.57;;;0.20;1.00;;;;;;5013734;28;20657;-77
2023/01/25 04:13:36;;;;;;;22.50;14.10;;;0.20;1.00;;;;;;5012461;28;20195;-78
2023/01/25 04:16:06;;;;;;;24.43;14.90;;;0.20;1.00;;;;;;5013753;28;20206;-78
2023/01/25 04:18:32;;;;;;;24.87;16.20;;;1.00;1.00;;;;;;5013516;28;20180;-78
2023/01/25 04:20:57;;;;;;;26.80;15.90;;;0.20;1.00;;;;;;5013770;28;20253;-78
2023/01/25 04:23:24;;;;;;;26.40;15.57;;;0.10;1.00;;;;;;5011896;28;20195;-78
2023/01/25 04:25:58;;;;;;;26.67;14.83;;;0.10;1.00;;;;;;5012269;28;20191;-78
2023/01/25 04:28:24;;;;;;;28.80;15.87;;;0.10;1.00;;;;;;5010892;28;20184;-78
2023/01/25 04:30:50;;;;;;;29.73;15.97;;;0.10;1.00;;;;;;5011576;28;20183;-78
2023/01/25 04:33:16;;;;;;;27.63;17.17;;;0.10;1.00;;;;;;5013023;28;20770;-77
2023/01/25 04:35:43;;;;;;;28.97;16.57;;;0.10;1.00;;;;;;5010930;28;20191;-78
2023/01/25 04:38:10;;;;;;;29.00;16.57;;;0.10;1.00;;;;;;5013462;28;20179;-78
2023/01/25 04:40:35;;;;;;;29.93;17.23;;;0.10;1.00;;;;;;5013193;28;20184;-78
2023/01/25 04:43:01;;;;;;;27.13;16.53;;;0.10;22.00;;;;;;5014346;28;20275;-78
2023/01/25 04:45:27;;;;;;;26.23;15.63;;;0.10;15.80;;;;;;5014834;28;20187;-78
2023/01/25 04:47:57;;;;;;;28.67;16.67;;;0.10;49.80;;;;;;5013103;28;20267;-77
2023/01/25 04:50:23;;;;;;;27.50;16.07;;;0.30;99.90;;;;;;5014081;28;20206;-78
2023/01/25 04:52:48;;;;;;;26.80;16.13;;;0.20;1.00;;;;;;5013383;28;20211;-78
2023/01/25 04:55:14;;;;;;;25.37;15.00;;;0.20;1.00;;;;;;5013507;28;20231;-78
2023/01/25 04:57:40;;;;;;;29.30;16.40;;;0.20;1.00;;;;;;5013822;28;20265;-78
2023/01/25 05:00:06;;;;;;;25.97;16.17;;;0.30;1.00;;;;;;5012275;28;20219;-78
2023/01/25 05:02:32;;;;;;;29.57;17.53;;;0.20;1.00;;;;;;5013625;28;20282;-78
2023/01/25 05:04:57;;;;;;;29.13;17.33;;;0.20;1.00;;;;;;5013928;28;20207;-78
2023/01/25 05:07:23;;;;;;;26.70;16.80;;;0.20;1.00;;;;;;5012362;28;20204;-78
2023/01/25 05:09:48;;;;;;;29.17;17.10;;;0.20;2.00;;;;;;5012929;28;20202;-79
2023/01/25 05:12:14;;;;;;;28.73;17.50;;;0.20;53.80;;;;;;5013204;28;20207;-78
2023/01/25 05:14:39;;;;;;;29.37;16.60;;;0.10;94.90;;;;;;5012497;28;20188;-78
2023/01/25 05:17:06;;;;;;;28.63;15.57;;;0.20;99.90;;;;;;5012558;28;20217;-76
2023/01/25 05:19:32;;;;;;;27.03;15.73;;;0.10;99.90;;;;;;5014542;28;20217;-78
2023/01/25 05:21:59;;;;;;;27.90;16.83;;;0.00;99.90;;;;;;5014368;28;20190;-78
2023/01/25 05:24:29;;;;;;;27.27;16.10;;;0.10;99.90;;;;;;5012819;28;20552;-78
2023/01/25 05:26:59;;;;;;;27.23;15.47;;;0.20;99.90;;;;;;5013840;28;21090;-78
2023/01/25 05:29:29;;;;;;;27.33;15.37;;;0.20;99.90;;;;;;5013463;28;20231;-78
2023/01/25 05:31:55;;;;;;;30.90;16.33;;;0.10;99.90;;;;;;5013507;28;20257;-78
2023/01/25 05:34:21;;;;;;;28.40;17.27;;;0.10;99.90;;;;;;5013653;28;20183;-78
2023/01/25 05:36:46;;;;;;;30.00;16.43;;;0.10;99.90;;;;;;5014077;28;20274;-78
2023/01/25 05:39:12;;;;;;;27.37;16.20;;;0.00;99.90;;;;;;5011831;28;20183;-78
2023/01/25 05:41:37;;;;;;;27.33;16.77;;;0.10;1.00;;;;;;5013032;28;20210;-78
2023/01/25 05:44:03;;;;;;;31.70;17.03;;;0.10;1.00;;;;;;5012194;28;20199;-78
2023/01/25 05:46:29;;;;;;;31.47;16.70;;;0.10;1.00;;;;;;5013260;28;20211;-78
2023/01/25 05:48:55;;;;;;;28.40;16.07;;;0.10;1.00;;;;;;5012393;28;20194;-78
2023/01/25 05:51:20;;;;;;;33.90;18.47;;;0.10;1.00;;;;;;5012208;28;20204;-78
2023/01/25 05:53:46;;;;;;;28.87;16.40;;;0.20;1.00;;;;;;5012840;28;20192;-78
2023/01/25 05:56:12;;;;;;;25.47;15.53;;;0.20;1.00;;;;;;5013055;28;20207;-78
2023/01/25 05:58:38;;;;;;;28.00;16.80;;;0.10;1.00;;;;;;5013404;28;20219;-77
2023/01/25 06:01:05;;;;;;;27.20;14.67;;;0.10;1.00;;;;;;5009488;28;20209;-77
2023/01/25 06:03:31;;;;;;;24.40;13.90;;;0.10;1.00;;;;;;5010985;28;20733;-78
2023/01/25 06:06:00;;;;;;;27.53;16.07;;;0.00;1.00;;;;;;5010992;28;20276;-78
2023/01/25 06:08:27;;;;;;;25.27;14.37;;;0.00;1.00;;;;;;5012761;28;20214;-78
2023/01/25 06:10:52;;;;;;;26.47;15.40;;;0.00;1.00;;;;;;5011505;28;20233;-78
2023/01/25 06:13:18;;;;;;;28.40;14.97;;;0.00;1.00;;;;;;5010438;28;21042;-78
2023/01/25 06:15:54;;;;;;;24.57;15.00;;;0.00;1.00;;;;;;5012362;28;20207;-78
2023/01/25 06:18:21;;;;;;;25.87;15.70;;;-0.10;1.00;;;;;;5012471;28;20954;-78
2023/01/25 06:20:47;;;;;;;29.93;16.27;;;-0.10;1.00;;;;;;5012441;28;20571;-78
2023/01/25 06:23:13;;;;;;;30.17;16.30;;;0.00;1.00;;;;;;5027189;28;20255;-78
2023/01/25 06:25:38;;;;;;;31.33;15.87;;;0.00;1.00;;;;;;5011640;28;20226;-78
2023/01/25 06:28:04;;;;;;;28.30;16.40;;;0.00;6.10;;;;;;5012760;28;20823;-78
2023/01/25 06:30:29;;;;;;;26.80;15.70;;;0.00;85.00;;;;;;5011968;28;20191;-78
2023/01/25 06:32:57;;;;;;;28.37;15.47;;;0.00;99.90;;;;;;5011680;28;20269;-78
2023/01/25 06:35:23;;;;;;;28.80;16.60;;;0.00;99.90;;;;;;5009934;28;20194;-78
2023/01/25 06:37:48;;;;;;;27.93;15.60;;;0.10;99.90;;;;;;5012112;28;20218;-78
2023/01/25 06:40:14;;;;;;;29.17;16.50;;;0.00;99.90;;;;;;5011439;28;20286;-78
2023/01/25 06:42:40;;;;;;;29.83;16.00;;;0.00;99.90;;;;;;5011248;28;20200;-78
2023/01/25 06:45:06;;;;;;;27.83;14.70;;;0.00;99.90;;;;;;5010926;28;20192;-78
2023/01/25 06:47:31;;;;;;;26.07;15.57;;;0.00;99.90;;;;;;5012569;28;20214;-78
2023/01/25 06:49:57;;;;;;;27.83;16.43;;;0.00;99.90;;;;;;5012227;28;20187;-78
2023/01/25 06:52:22;;;;;;;26.50;15.37;;;0.00;99.90;;;;;;5011398;28;20242;-76
2023/01/25 06:54:48;;;;;;;27.17;14.40;;;-0.10;99.90;;;;;;5008783;28;20187;-78
2023/01/25 06:57:14;;;;;;;25.10;14.80;;;-0.10;99.90;;;;;;5010872;28;20215;-77
2023/01/25 06:59:39;;;;;;;29.50;16.50;;;-0.10;99.90;;;;;;5008898;28;20255;-78
2023/01/25 07:02:05;;;;;;;29.23;15.77;;;-0.10;99.90;;;;;;5008645;28;20192;-77
2023/01/25 07:04:31;;;;;;;30.13;16.10;;;-0.10;99.90;;;;;;5007746;28;20275;-78
2023/01/25 07:06:56;;;;;;;26.00;14.87;;;-0.10;99.90;;;;;;5008574;28;20211;-78
2023/01/25 07:09:23;;;;;;;30.77;15.83;;;-0.10;1.00;;;;;;5009855;28;20270;-78
2023/01/25 07:11:52;;;;;;;26.10;14.97;;;-0.10;1.00;;;;;;5007228;28;20201;-77
2023/01/25 07:14:17;;;;;;;27.00;15.50;;;-0.10;1.00;;;;;;5009158;28;20540;-77
2023/01/25 07:16:43;;;;;;;24.20;15.10;;;-0.10;1.00;;;;;;5024430;28;20207;-77
2023/01/25 07:19:14;;;;;;;23.20;15.17;;;0.00;1.00;;;;;;5010303;28;20207;-77
2023/01/25 07:21:39;;;;;;;21.67;14.60;;;-0.10;1.00;;;;;;5024263;28;20188;-78
2023/01/25 07:24:05;;;;;;;21.70;14.30;;;-0.20;99.90;;;;;;5008553;28;20697;-77
2023/01/25 07:26:31;;;;;;;22.70;15.13;;;-0.20;99.90;;;;;;5009093;28;20294;-77
2023/01/25 07:28:58;;;;;;;26.70;16.77;;;-0.20;99.90;;;;;;5008842;28;20735;-77
2023/01/25 07:31:24;;;;;;;25.57;16.40;;;-0.20;99.90;;;;;;5008417;28;20230;-77
2023/01/25 07:33:52;;;;;;;33.73;19.50;;;0.00;49.30;;;;;;5006497;28;20187;-77
2023/01/25 07:36:18;;;;;;;25.60;16.40;;;0.00;1.00;;;;;;5008776;28;20631;-77
2023/01/25 07:38:44;;;;;;;27.60;16.80;;;-0.10;1.00;;;;;;5006006;28;20237;-77
2023/01/25 07:41:10;;;;;;;23.90;16.33;;;-0.10;99.90;;;;;;5009883;28;21187;-77
2023/01/25 07:43:35;;;;;;;28.77;17.80;;;-0.10;99.90;;;;;;5010693;28;20215;-77
2023/01/25 07:46:03;;;;;;;26.10;16.53;;;-0.20;99.90;;;;;;5009337;28;20231;-78
2023/01/25 07:48:29;;;;;;;25.43;15.43;;;-0.20;99.90;;;;;;5009841;28;20982;-77
2023/01/25 07:51:11;;;;;;;31.13;21.13;;;-0.20;99.90;;;;;;5009541;28;20498;-77
2023/01/25 07:53:41;;;;;;;26.17;16.93;;;-0.20;99.90;;;;;;5009860;28;20196;-78
2023/01/25 07:56:08;;;;;;;20.50;13.77;;;-0.30;99.90;;;;;;5008924;28;20258;-78
2023/01/25 07:58:33;;;;;;;19.80;12.87;;;-0.30;99.90;;;;;;5010362;28;20853;-78
2023/01/25 08:01:10;;;;;;;23.27;15.47;;;-0.30;99.90;;;;;;5010946;28;20188;-78
2023/01/25 08:03:36;;;;;;;22.17;13.00;;;-0.20;99.90;;;;;;5014396;28;20806;-78
2023/01/25 08:06:04;;;;;;;18.70;12.17;;;-0.10;1.00;;;;;;5015062;28;20211;-77
2023/01/25 08:08:34;;;;;;;21.70;13.47;;;-0.10;1.00;;;;;;5016298;28;20641;-78
2023/01/25 08:11:06;;;;;;;23.03;14.83;;;-0.10;1.00;;;;;;5017361;28;20183;-78
2023/01/25 08:13:32;;;;;;;23.00;15.10;;;-0.20;1.00;;;;;;5016398;28;20203;-77
2023/01/25 08:15:58;;;;;;;32.77;21.63;;;-0.30;1.00;;;;;;5014146;28;20211;-76
2023/01/25 08:18:24;;;;;;;18.90;12.97;;;-0.30;1.00;;;;;;5031994;28;20405;-78
2023/01/25 08:20:50;;;;;;;18.73;12.53;;;-0.40;1.00;;;;;;5016093;28;21273;-78
2023/01/25 08:23:15;;;;;;;19.90;13.33;;;0.50;1.00;;;;;;5014528;28;20187;-77
2023/01/25 08:25:41;;;;;;;18.47;12.67;;;-0.40;22.50;;;;;;5012883;28;20855;-77
2023/01/25 08:28:06;;;;;;;20.47;14.20;;;-0.30;1.00;;;;;;5014868;28;20194;-78
2023/01/25 08:30:32;;;;;;;19.20;12.77;;;-0.30;16.50;;;;;;5014254;28;20199;-77
2023/01/25 08:32:59;;;;;;;18.00;12.50;;;-0.30;1.00;;;;;;5013578;28;20212;-78
2023/01/25 08:35:24;;;;;;;20.07;12.70;;;-0.30;1.00;;;;;;5015877;28;20196;-78
2023/01/25 08:37:50;;;;;;;19.70;13.47;;;-0.30;1.00;;;;;;5015072;28;20277;-78
2023/01/25 08:40:16;;;;;;;20.93;14.70;;;-0.30;99.90;;;;;;5016982;28;20192;-78
2023/01/25 08:42:44;;;;;;;20.93;14.00;;;-0.30;99.90;;;;;;5018370;28;20191;-77
2023/01/25 08:45:10;;;;;;;15.40;10.97;;;-0.20;99.90;;;;;;5017822;28;20238;-78
2023/01/25 08:47:36;;;;;;;15.43;11.10;;;-0.30;99.90;;;;;;5011564;28;20223;-77
2023/01/25 08:50:02;;;;;;;17.60;11.90;;;-0.30;99.90;;;;;;5010723;28;20191;-77
2023/01/25 08:52:28;;;;;;;19.57;11.87;;;-0.40;99.90;;;;;;5013322;28;20236;-77
2023/01/25 08:54:53;;;;;;;16.07;11.07;;;-0.40;99.90;;;;;;5017009;28;20698;-78
2023/01/25 08:57:19;;;;;;;17.00;11.13;;;-0.40;99.90;;;;;;5010865;28;20211;-78
2023/01/25 08:59:45;;;;;;;17.87;11.70;;;0.80;99.90;;;;;;5014029;28;20227;-78
2023/01/25 09:02:11;;;;;;;16.73;10.90;;;-0.40;99.90;;;;;;5014921;28;20199;-77
2023/01/25 09:04:37;;;;;;;15.83;10.60;;;-0.40;1.00;;;;;;5011831;28;20576;-79
2023/01/25 09:07:02;;;;;;;15.10;10.33;;;-0.40;1.00;;;;;;5012019;28;20207;-77
2023/01/25 09:09:29;;;;;;;18.53;12.87;;;-0.50;99.90;;;;;;5006968;28;20176;-77
2023/01/25 09:11:55;;;;;;;16.90;12.10;;;-0.40;99.90;;;;;;5011838;28;20187;-80
2023/01/25 09:14:21;;;;;;;16.63;11.30;;;-0.40;99.90;;;;;;5006433;28;20195;-77
2023/01/25 09:16:47;;;;;;;16.57;11.20;;;-0.30;99.90;;;;;;5003624;28;20211;-77
2023/01/25 09:19:12;;;;;;;15.00;10.17;;;0.60;99.90;;;;;;5006718;28;20207;-77
2023/01/25 09:21:38;;;;;;;15.13;10.07;;;-0.40;25.00;;;;;;5004781;28;20179;-77
2023/01/25 09:24:04;;;;;;;15.07;10.53;;;-0.40;1.00;;;;;;5003542;28;20218;-77
2023/01/25 09:26:30;;;;;;;15.13;10.67;;;-0.40;1.00;;;;;;5003303;28;20199;-77
2023/01/25 09:28:56;;;;;;;16.23;11.00;;;-0.40;1.00;;;;;;5005208;28;20247;-77
2023/01/25 09:31:21;;;;;;;15.70;11.17;;;-0.40;46.40;;;;;;5006539;28;20263;-77
2023/01/25 09:33:48;;;;;;;15.50;11.23;;;-0.30;99.90;;;;;;5004738;28;20198;-77
2023/01/25 09:36:14;;;;;;;15.03;10.87;;;-0.20;1.00;;;;;;5004855;28;20697;-77
2023/01/25 09:38:39;;;;;;;15.30;10.87;;;-0.30;1.00;;;;;;5006729;28;20214;-78
2023/01/25 09:41:29;;;;;;;15.87;11.37;;;-0.40;1.00;;;;;;5006963;28;20172;-77
2023/01/25 09:44:32;;;;;;;14.87;9.73;;;-0.30;1.00;;;;;;5003948;28;20180;-77
2023/01/25 09:47:15;;;;;;;17.27;11.67;;;-0.20;99.90;;;;;;5005129;28;20203;-77
2023/01/25 09:49:48;;;;;;;14.20;10.33;;;-0.40;99.90;;;;;;5021692;28;20188;-77
2023/01/25 09:52:31;;;;;;;15.07;10.87;;;-0.40;99.90;;;;;;5005943;28;20227;-77
2023/01/25 09:54:57;;;;;;;16.47;12.13;;;-0.40;99.90;;;;;;5021398;28;20183;-77
2023/01/25 09:57:32;;;;;;;15.10;11.77;;;0.30;1.00;;;;;;5006022;28;20230;-77
2023/01/25 10:00:02;;;;;;;17.57;13.10;;;-0.40;1.00;;;;;;5006199;28;20589;-77
2023/01/25 10:02:48;;;;;;;14.67;11.17;;;-0.20;1.00;;;;;;5006248;28;20245;-77
2023/01/25 10:05:28;;;;;;;104.67;64.07;;;-0.30;1.00;;;;;;5004256;28;20191;-77
2023/01/25 10:08:19;;;;;;;23.40;16.70;;;-0.30;99.90;;;;;;5004900;28;20218;-77
2023/01/25 10:10:47;;;;;;;22.23;16.03;;;-0.30;99.90;;;;;;5006375;28;20558;-77
2023/01/25 10:13:16;;;;;;;19.63;14.30;;;-0.30;1.00;;;;;;5020912;28;20235;-77
2023/01/25 10:15:48;;;;;;;17.77;13.03;;;-0.20;1.00;;;;;;5003375;28;20188;-80
2023/01/25 10:18:26;;;;;;;15.67;11.60;;;-0.30;1.00;;;;;;5020139;28;20642;-77
2023/01/25 10:20:59;;;;;;;17.13;11.90;;;-0.20;1.00;;;;;;5003511;28;20258;-77
2023/01/25 10:23:48;;;;;;;18.83;12.90;;;-0.20;99.90;;;;;;5003690;28;20183;-78
2023/01/25 10:26:28;;;;;;;17.00;11.53;;;-0.10;99.90;;;;;;5016433;28;20214;-76
2023/01/25 10:29:13;;;;;;;16.90;12.37;;;-0.20;99.90;;;;;;5003618;28;20194;-77
2023/01/25 10:31:52;;;;;;;18.00;13.20;;;-0.30;99.90;;;;;;5003668;28;20199;-77
2023/01/25 10:34:21;;;;;;;21.30;14.37;;;-0.20;99.90;;;;;;5003309;28;20184;-77
2023/01/25 10:36:53;;;;;;;17.20;12.27;;;-0.20;1.00;;;;;;5004916;28;21312;-77
2023/01/25 10:39:19;;;;;;;17.60;12.33;;;0.00;1.00;;;;;;5005403;28;20187;-77
2023/01/25 10:42:00;;;;;;;16.93;11.27;;;0.00;99.90;;;;;;5003800;28;20187;-77
2023/01/25 10:44:27;;;;;;;15.13;9.77;;;0.00;99.90;;;;;;5004327;28;20191;-77
2023/01/25 10:47:29;;;;;;;15.57;10.20;;;-0.20;86.80;;;;;;5001662;28;20295;-77
2023/01/25 10:49:57;;;;;;;17.27;11.00;;;-0.20;99.90;;;;;;5001737;28;20657;-77
2023/01/25 10:52:25;;;;;;;17.27;11.47;;;-0.20;99.90;;;;;;5002371;28;20222;-77
2023/01/25 10:55:15;;;;;;;18.30;10.80;;;-0.20;99.90;;;;;;5002311;28;20172;-77
2023/01/25 10:57:58;;;;;;;20.73;12.57;;;-0.30;99.90;;;;;;5017076;28;20206;-77
2023/01/25 11:00:27;;;;;;;23.37;13.77;;;-0.30;1.00;;;;;;5004146;28;20176;-77
2023/01/25 11:02:54;;;;;;;31.33;18.07;;;-0.20;1.00;;;;;;5002945;28;20183;-77
2023/01/25 11:05:31;;;;;;;37.30;19.87;;;-0.20;1.00;;;;;;5002663;28;20661;-77
2023/01/25 11:07:58;;;;;;;49.00;24.73;;;-0.10;1.00;;;;;;5002780;28;20303;-77
2023/01/25 11:10:33;;;;;;;49.93;24.67;;;-0.10;99.90;;;;;;5002643;28;20261;-77
2023/01/25 11:13:14;;;;;;;52.17;26.40;;;-0.20;99.90;;;;;;5002129;28;20289;-77
2023/01/25 11:15:44;;;;;;;51.30;25.57;;;-0.30;99.90;;;;;;5002574;28;20187;-77
2023/01/25 11:18:32;;;;;;;49.27;25.60;;;-0.20;1.00;;;;;;5003151;28;20676;-77
2023/01/25 11:21:20;;;;;;;47.00;22.77;;;-0.20;1.00;;;;;;5003200;28;20668;-77
2023/01/25 11:24:08;;;;;;;47.43;23.17;;;-0.20;1.00;;;;;;4999506;28;20850;-77
2023/01/25 11:26:36;;;;;;;41.77;22.53;;;-0.20;1.00;;;;;;4996739;28;20219;-77
2023/01/25 11:29:24;;;;;;;49.13;23.90;;;-0.20;1.00;;;;;;4998944;28;20267;-77
2023/01/25 11:31:56;;;;;;;43.43;23.00;;;-0.20;1.00;;;;;;4998900;28;20386;-77
2023/01/25 11:34:26;;;;;;;45.73;24.60;;;-0.30;1.00;;;;;;4997324;28;20202;-77
2023/01/25 11:36:51;;;;;;;41.23;21.77;;;-0.20;99.90;;;;;;5001107;28;20369;-77
2023/01/25 11:39:38;;;;;;;33.07;19.57;;;-0.10;99.90;;;;;;5004046;28;20278;-77
2023/01/25 11:42:32;;;;;;;33.50;18.63;;;-0.10;97.60;;;;;;5001433;28;20192;-77
2023/01/25 11:45:31;;;;;;;38.13;22.33;;;-0.10;18.30;;;;;;5005015;28;20190;-77
2023/01/25 11:48:11;;;;;;;36.17;20.10;;;-0.30;1.00;;;;;;5006662;28;21286;-77
2023/01/25 11:51:01;;;;;;;28.27;16.13;;;0.00;48.30;;;;;;5004984;28;20282;-77
2023/01/25 11:53:29;;;;;;;21.60;13.33;;;0.10;1.00;;;;;;5005280;28;20199;-77
2023/01/25 11:56:06;;;;;;;24.30;15.10;;;0.10;1.00;;;;;;5002963;28;20184;-77
2023/01/25 11:59:10;;;;;;;23.17;13.47;;;0.10;99.90;;;;;;5003637;28;20717;-77
2023/01/25 12:01:52;;;;;;;21.20;13.27;;;0.10;99.90;;;;;;5005049;28;20187;-77
2023/01/25 12:04:42;;;;;;;22.93;14.43;;;0.10;99.90;;;;;;5005127;28;20199;-77
2023/01/25 12:07:15;;;;;;;24.60;14.67;;;0.00;99.90;;;;;;5022105;28;20226;-77
2023/01/25 12:10:24;;;;;;;23.17;13.93;;;0.00;99.90;;;;;;5007279;28;20202;-77
2023/01/25 12:13:15;;;;;;;27.43;16.73;;;0.00;1.00;;;;;;5020567;28;20213;-76
2023/01/25 12:16:11;;;;;;;30.20;16.93;;;0.00;1.00;;;;;;5002065;28;20257;-77
2023/01/25 12:18:46;;;;;;;25.57;17.43;;;0.10;1.00;;;;;;5005853;28;20180;-77
2023/01/25 12:21:38;;;;;;;22.77;15.50;;;0.00;99.90;;;;;;5005686;28;20210;-77
2023/01/25 12:24:36;;;;;;;24.07;15.83;;;0.10;99.90;;;;;;5004950;28;20234;-77
2023/01/25 12:27:16;;;;;;;25.47;16.63;;;0.00;99.90;;;;;;4985914;28;20215;-77
2023/01/25 12:30:10;;;;;;;27.53;17.90;;;0.00;99.90;;;;;;5021305;28;20186;-77
2023/01/25 12:32:46;;;;;;;33.77;18.83;;;0.00;99.90;;;;;;5005402;28;20195;-77
2023/01/25 12:35:41;;;;;;;37.93;23.87;;;-0.10;99.90;;;;;;5005376;28;20179;-77
2023/01/25 12:38:19;;;;;;;42.90;29.07;;;0.00;1.00;;;;;;5005801;28;20199;-77
2023/01/25 12:41:23;;;;;;;46.73;30.50;;;0.00;1.00;;;;;;5005455;28;20732;-76
2023/01/25 12:44:09;;;;;;;39.70;23.40;;;0.00;1.00;;;;;;5003055;28;20876;-77
2023/01/25 12:46:50;;;;;;;30.87;18.50;;;0.00;1.00;;;;;;5026561;28;20211;-77
2023/01/25 12:49:43;;;;;;;32.03;18.60;;;1.10;1.00;;;;;;5024725;28;20187;-77
2023/01/25 12:52:23;;;;;;;32.53;17.47;;;0.00;1.00;;;;;;5011742;28;20196;-77
2023/01/25 12:54:50;;;;;;;31.27;18.47;;;0.00;1.00;;;;;;5008839;28;20190;-77
2023/01/25 12:57:48;;;;;;;32.23;19.60;;;0.00;1.00;;;;;;5012129;28;20230;-77
2023/01/25 13:00:27;;;;;;;31.77;17.77;;;0.00;1.00;;;;;;5013523;28;20179;-77